createdAt,value
2022-08-31T00:00:15.007Z,63.62
2022-08-31T00:03:00.350Z,63.85
2022-08-31T00:05:27.341Z,63.96
2022-08-31T00:07:54.450Z,63.97
2022-08-31T00:10:32.448Z,63.89
2022-08-31T00:13:01.239Z,63.74
2022-08-31T00:15:30.458Z,63.77
2022-08-31T00:17:58.355Z,63.78
2022-08-31T00:20:33.077Z,63.77
2022-08-31T00:23:06.880Z,64.00
2022-08-31T00:25:34.929Z,63.74
2022-08-31T00:28:02.546Z,63.68
2022-08-31T00:30:30.680Z,63.85
2022-08-31T00:32:58.591Z,63.98
2022-08-31T00:35:30.101Z,63.75
2022-08-31T00:37:57.237Z,63.54
2022-08-31T00:40:25.492Z,63.84
2022-08-31T00:42:52.778Z,63.82
2022-08-31T00:45:19.782Z,63.76
2022-08-31T00:47:46.706Z,64.04
2022-08-31T00:50:16.348Z,63.87
2022-08-31T00:52:47.060Z,64.03
2022-08-31T00:55:22.299Z,63.98
2022-08-31T00:57:53.945Z,64.05
2022-08-31T01:00:24.306Z,64.02
2022-08-31T01:02:51.810Z,63.94
2022-08-31T01:05:19.535Z,64.00
2022-08-31T01:07:48.219Z,63.71
2022-08-31T01:10:21.218Z,63.63
2022-08-31T01:12:51.400Z,63.60
2022-08-31T01:15:19.137Z,63.68
2022-08-31T01:17:49.561Z,63.74
2022-08-31T01:20:26.495Z,63.80
2022-08-31T01:23:13.237Z,63.74
2022-08-31T01:25:43.808Z,63.75
2022-08-31T01:28:12.128Z,63.66
2022-08-31T01:30:41.471Z,63.78
2022-08-31T01:33:09.542Z,63.59
2022-08-31T01:35:36.484Z,63.51
2022-08-31T01:38:04.517Z,63.61
2022-08-31T01:40:34.927Z,63.56
2022-08-31T01:43:02.344Z,63.46
2022-08-31T01:45:29.877Z,63.46
2022-08-31T01:47:59.817Z,63.37
2022-08-31T01:50:26.747Z,63.65
2022-08-31T01:52:53.779Z,63.45
2022-08-31T01:55:20.790Z,63.55
2022-08-31T01:57:47.701Z,63.63
2022-08-31T02:00:14.912Z,63.47
2022-08-31T02:02:42.104Z,63.62
2022-08-31T02:05:10.436Z,63.54
2022-08-31T02:07:37.294Z,63.58
2022-08-31T02:10:05.615Z,63.57
2022-08-31T02:12:32.681Z,63.61
2022-08-31T02:14:59.647Z,63.60
2022-08-31T02:17:26.588Z,63.73
2022-08-31T02:19:53.444Z,63.57
2022-08-31T02:22:20.352Z,63.57
2022-08-31T02:24:47.336Z,63.73
2022-08-31T02:27:14.383Z,63.46
2022-08-31T02:29:41.335Z,63.79
2022-08-31T02:32:08.311Z,63.60
2022-08-31T02:34:46.518Z,63.54
2022-08-31T02:37:13.543Z,63.57
2022-08-31T02:39:40.534Z,63.71
2022-08-31T02:42:07.801Z,63.65
2022-08-31T02:44:35.319Z,63.66
2022-08-31T02:47:02.183Z,63.45
2022-08-31T02:49:32.806Z,63.64
2022-08-31T02:51:59.738Z,63.49
2022-08-31T02:54:26.582Z,63.69
2022-08-31T02:56:53.604Z,63.79
2022-08-31T02:59:21.025Z,63.68
2022-08-31T03:01:48.438Z,63.61
2022-08-31T03:04:15.412Z,63.90
2022-08-31T03:06:42.484Z,63.63
2022-08-31T03:09:09.394Z,63.79
2022-08-31T03:11:36.269Z,63.62
2022-08-31T03:14:03.223Z,63.70
2022-08-31T03:16:30.153Z,63.68
2022-08-31T03:18:57.709Z,63.72
2022-08-31T03:21:24.704Z,63.72
2022-08-31T03:23:51.727Z,63.69
2022-08-31T03:26:18.598Z,63.81
2022-08-31T03:28:45.459Z,63.71
2022-08-31T03:31:12.479Z,63.57
2022-08-31T03:33:39.390Z,63.83
2022-08-31T03:36:07.437Z,63.80
2022-08-31T03:38:34.930Z,63.72
2022-08-31T03:41:02.503Z,63.64
2022-08-31T03:43:29.399Z,63.97
2022-08-31T03:45:56.340Z,63.81
2022-08-31T03:48:23.413Z,63.86
2022-08-31T03:50:50.402Z,63.97
2022-08-31T03:53:22.419Z,63.91
2022-08-31T03:55:49.834Z,63.94
2022-08-31T03:58:16.848Z,63.83
2022-08-31T04:00:46.775Z,63.89
2022-08-31T04:03:14.417Z,63.95
2022-08-31T04:05:44.808Z,64.10
2022-08-31T04:08:11.920Z,64.10
2022-08-31T04:10:41.333Z,64.08
2022-08-31T04:13:08.343Z,63.85
2022-08-31T04:15:37.317Z,63.90
2022-08-31T04:18:04.742Z,63.95
2022-08-31T04:20:42.510Z,64.25
2022-08-31T04:23:10.098Z,64.00
2022-08-31T04:25:41.233Z,64.06
2022-08-31T04:28:09.415Z,63.79
2022-08-31T04:30:43.452Z,64.03
2022-08-31T04:33:10.423Z,64.01
2022-08-31T04:35:41.049Z,64.17
2022-08-31T04:38:08.648Z,64.42
2022-08-31T04:40:38.999Z,64.26
2022-08-31T04:43:06.940Z,64.21
2022-08-31T04:45:33.922Z,64.53
2022-08-31T04:48:00.907Z,64.49
2022-08-31T04:50:27.831Z,62.99
2022-08-31T04:53:03.199Z,63.89
2022-08-31T04:55:30.626Z,64.04
2022-08-31T04:57:57.608Z,64.12
2022-08-31T05:00:25.053Z,64.21
2022-08-31T05:02:53.693Z,64.27
2022-08-31T05:05:20.581Z,64.32
2022-08-31T05:07:47.403Z,64.48
2022-08-31T05:10:15.282Z,64.59
2022-08-31T05:12:42.197Z,64.43
2022-08-31T05:15:09.334Z,64.62
2022-08-31T05:17:36.263Z,64.72
2022-08-31T05:20:05.477Z,64.74
2022-08-31T05:22:32.533Z,60.74
2022-08-31T05:24:59.557Z,61.36
2022-08-31T05:27:26.510Z,63.18
2022-08-31T05:29:53.344Z,63.43
2022-08-31T05:32:20.378Z,63.57
2022-08-31T05:34:47.203Z,63.76
2022-08-31T05:37:14.043Z,63.58
2022-08-31T05:39:40.963Z,63.25
2022-08-31T05:42:08.027Z,63.78
2022-08-31T05:44:35.843Z,63.47
2022-08-31T05:47:07.133Z,63.76
2022-08-31T05:49:35.229Z,60.25
2022-08-31T05:52:03.118Z,59.02
2022-08-31T05:54:30.115Z,58.16
2022-08-31T05:56:57.998Z,57.65
2022-08-31T05:59:29.360Z,58.49
2022-08-31T06:01:56.402Z,60.60
2022-08-31T06:04:23.419Z,59.94
2022-08-31T06:06:50.425Z,61.21
2022-08-31T06:09:17.334Z,61.42
2022-08-31T06:11:44.386Z,61.47
2022-08-31T06:14:13.485Z,61.71
2022-08-31T06:16:44.213Z,61.85
2022-08-31T06:19:11.548Z,62.04
2022-08-31T06:21:49.328Z,62.13
2022-08-31T06:24:19.265Z,61.20
2022-08-31T06:26:58.392Z,59.08
2022-08-31T06:29:27.262Z,58.48
2022-08-31T06:31:54.331Z,57.90
2022-08-31T06:34:21.658Z,57.62
2022-08-31T06:36:48.925Z,57.23
2022-08-31T06:39:17.167Z,57.29
2022-08-31T06:41:44.215Z,58.18
2022-08-31T06:44:14.230Z,58.71
2022-08-31T06:46:42.295Z,59.22
2022-08-31T06:49:15.038Z,59.36
2022-08-31T06:51:41.968Z,59.71
2022-08-31T06:54:28.514Z,59.95
2022-08-31T06:56:58.772Z,60.44
2022-08-31T06:59:28.857Z,60.64
2022-08-31T07:01:57.901Z,60.95
2022-08-31T07:04:26.758Z,61.10
2022-08-31T07:06:54.294Z,61.06
2022-08-31T07:09:21.343Z,61.37
2022-08-31T07:11:52.446Z,61.54
2022-08-31T07:14:22.380Z,61.64
2022-08-31T07:16:53.662Z,61.64
2022-08-31T07:19:22.515Z,61.66
2022-08-31T07:21:52.906Z,61.78
2022-08-31T07:24:24.558Z,61.94
2022-08-31T07:27:10.488Z,62.06
2022-08-31T07:29:42.268Z,62.09
2022-08-31T07:32:11.489Z,62.16
2022-08-31T07:34:39.203Z,62.06
2022-08-31T07:37:25.955Z,61.89
2022-08-31T07:40:11.730Z,62.06
2022-08-31T07:42:44.094Z,62.03
2022-08-31T07:45:22.900Z,61.90
2022-08-31T07:47:55.665Z,61.86
2022-08-31T07:50:23.383Z,61.93
2022-08-31T07:52:54.645Z,62.07
2022-08-31T07:55:26.961Z,61.97
2022-08-31T07:57:55.154Z,62.27
2022-08-31T08:00:27.907Z,62.48
2022-08-31T08:02:55.864Z,62.44
2022-08-31T08:05:27.372Z,62.32
2022-08-31T08:07:58.207Z,62.28
2022-08-31T08:10:26.595Z,62.40
2022-08-31T08:13:04.148Z,62.32
2022-08-31T08:15:35.694Z,62.56
2022-08-31T08:18:04.857Z,62.36
2022-08-31T08:20:37.345Z,62.23
2022-08-31T08:23:13.951Z,62.38
2022-08-31T08:25:56.289Z,62.43
2022-08-31T08:28:39.094Z,62.28
2022-08-31T08:31:12.785Z,62.29
2022-08-31T08:33:40.228Z,62.47
2022-08-31T08:36:08.743Z,62.28
2022-08-31T08:38:44.163Z,61.94
2022-08-31T08:41:26.537Z,62.14
2022-08-31T08:43:57.706Z,62.24
2022-08-31T08:46:40.484Z,61.97
2022-08-31T08:49:28.804Z,62.30
2022-08-31T08:52:06.334Z,62.13
2022-08-31T08:54:39.035Z,62.00
2022-08-31T08:57:19.527Z,61.83
2022-08-31T08:59:48.173Z,61.92
2022-08-31T09:02:20.228Z,61.90
2022-08-31T09:05:04.205Z,61.99
2022-08-31T09:07:43.352Z,62.35
2022-08-31T09:10:25.607Z,62.49
2022-08-31T09:12:58.891Z,62.44
2022-08-31T09:15:32.375Z,62.24
2022-08-31T09:18:25.449Z,62.24
2022-08-31T09:21:07.537Z,62.07
2022-08-31T09:23:41.548Z,62.37
2022-08-31T09:26:10.074Z,62.99
2022-08-31T09:28:45.102Z,63.19
2022-08-31T09:31:40.130Z,63.30
2022-08-31T09:34:12.816Z,63.17
2022-08-31T09:36:43.484Z,63.29
2022-08-31T09:39:33.045Z,63.28
2022-08-31T09:42:29.408Z,63.10
2022-08-31T09:45:01.247Z,63.55
2022-08-31T09:47:56.240Z,63.38
2022-08-31T09:50:57.125Z,63.33
2022-08-31T09:53:44.210Z,63.32
2022-08-31T09:56:23.343Z,62.97
2022-08-31T09:59:01.786Z,62.65
2022-08-31T10:01:45.528Z,62.78
2022-08-31T10:04:27.433Z,62.69
2022-08-31T10:07:12.397Z,62.28
2022-08-31T10:09:47.349Z,62.33
2022-08-31T10:12:20.357Z,62.41
2022-08-31T10:15:04.405Z,62.02
2022-08-31T10:18:15.030Z,61.91
2022-08-31T10:20:48.701Z,62.21
2022-08-31T10:23:21.757Z,62.27
2022-08-31T10:25:54.949Z,62.39
2022-08-31T10:28:32.433Z,62.70
2022-08-31T10:31:07.830Z,62.70
2022-08-31T10:33:58.116Z,63.07
2022-08-31T10:36:33.515Z,63.41
2022-08-31T10:39:01.250Z,63.15
2022-08-31T10:41:39.137Z,62.87
2022-08-31T10:44:23.907Z,63.09
2022-08-31T10:46:54.787Z,62.76
2022-08-31T10:49:22.755Z,62.75
2022-08-31T10:52:10.518Z,62.63
2022-08-31T10:54:45.991Z,62.99
2022-08-31T10:57:32.813Z,62.74
2022-08-31T11:00:08.877Z,62.64
2022-08-31T11:03:02.654Z,62.91
2022-08-31T11:05:50.778Z,62.96
2022-08-31T11:08:30.599Z,62.62
2022-08-31T11:10:59.557Z,62.51
2022-08-31T11:13:38.930Z,62.68
2022-08-31T11:16:27.283Z,62.87
2022-08-31T11:19:09.354Z,62.56
2022-08-31T11:22:13.821Z,62.51
2022-08-31T11:25:00.731Z,62.59
2022-08-31T11:27:39.804Z,62.78
2022-08-31T11:30:13.439Z,63.10
2022-08-31T11:32:47.856Z,63.39
2022-08-31T11:35:15.924Z,63.64
2022-08-31T11:37:52.568Z,63.33
2022-08-31T11:40:59.585Z,63.34
2022-08-31T11:43:32.459Z,63.65
2022-08-31T11:46:40.131Z,63.65
2022-08-31T11:49:11.175Z,63.37
2022-08-31T11:51:45.406Z,63.52
2022-08-31T11:54:27.140Z,63.15
2022-08-31T11:56:57.253Z,62.84
2022-08-31T11:59:35.715Z,62.65
2022-08-31T12:05:00.839Z,62.32
2022-08-31T12:07:36.866Z,62.25
2022-08-31T12:10:18.505Z,62.55
2022-08-31T12:13:25.591Z,62.52
2022-08-31T12:16:07.967Z,62.85
2022-08-31T12:18:49.954Z,63.00
2022-08-31T12:21:41.523Z,62.81
2022-08-31T12:24:39.246Z,62.40
2022-08-31T12:27:20.567Z,62.53
2022-08-31T12:29:47.703Z,62.70
2022-08-31T12:32:19.813Z,62.97
2022-08-31T12:35:14.825Z,63.10
2022-08-31T12:37:42.988Z,63.39
2022-08-31T12:40:17.874Z,63.65
2022-08-31T12:43:00.191Z,63.73
2022-08-31T12:45:40.060Z,63.53
2022-08-31T12:48:31.351Z,63.66
2022-08-31T12:51:24.504Z,63.37
2022-08-31T12:54:20.316Z,63.34
2022-08-31T12:57:29.663Z,63.25
2022-08-31T13:00:03.024Z,62.76
2022-08-31T13:02:33.813Z,62.91
2022-08-31T13:05:03.382Z,62.88
2022-08-31T13:07:33.707Z,63.03
2022-08-31T13:10:29.955Z,62.94
2022-08-31T13:13:03.334Z,63.15
2022-08-31T13:15:30.462Z,62.99
2022-08-31T13:17:58.672Z,62.80
2022-08-31T13:20:29.989Z,62.76
2022-08-31T13:23:02.673Z,62.57
2022-08-31T13:25:38.809Z,62.55
2022-08-31T13:28:14.909Z,62.24
2022-08-31T13:30:54.924Z,62.37
2022-08-31T13:33:23.663Z,62.17
2022-08-31T13:35:54.485Z,62.27
2022-08-31T13:38:29.425Z,62.36
2022-08-31T13:40:56.574Z,62.32
2022-08-31T13:43:27.124Z,62.42
2022-08-31T13:46:01.245Z,62.76
2022-08-31T13:48:34.037Z,62.90
2022-08-31T13:51:17.539Z,62.79
2022-08-31T13:53:46.824Z,62.84
2022-08-31T13:56:43.212Z,62.95
2022-08-31T13:59:25.079Z,62.88
2022-08-31T14:02:01.453Z,62.85
2022-08-31T14:04:39.286Z,62.49
2022-08-31T14:07:06.342Z,62.16
2022-08-31T14:09:33.516Z,62.19
2022-08-31T14:12:04.711Z,61.92
2022-08-31T14:14:42.601Z,61.93
2022-08-31T14:17:17.953Z,61.93
2022-08-31T14:19:45.777Z,61.61
2022-08-31T14:22:35.790Z,61.77
2022-08-31T14:25:07.133Z,62.10
2022-08-31T14:27:36.953Z,61.68
2022-08-31T14:30:04.487Z,61.69
2022-08-31T14:32:33.837Z,61.62
2022-08-31T14:35:02.720Z,61.60
2022-08-31T14:37:30.623Z,61.74
2022-08-31T14:40:07.621Z,61.73
2022-08-31T14:42:38.478Z,61.34
2022-08-31T14:45:13.231Z,61.63
2022-08-31T14:47:44.539Z,61.18
2022-08-31T14:50:19.058Z,61.47
2022-08-31T14:52:55.793Z,61.25
2022-08-31T14:55:25.827Z,60.96
2022-08-31T14:57:59.663Z,61.09
2022-08-31T15:00:32.135Z,61.10
2022-08-31T15:03:01.606Z,60.85
2022-08-31T15:05:29.761Z,60.88
2022-08-31T15:07:57.194Z,61.22
2022-08-31T15:10:26.207Z,61.42
2022-08-31T15:12:54.084Z,61.48
2022-08-31T15:15:21.939Z,61.46
2022-08-31T15:17:51.777Z,61.70
2022-08-31T15:20:23.088Z,61.73
2022-08-31T15:22:50.451Z,61.83
2022-08-31T15:25:19.145Z,61.92
2022-08-31T15:27:46.961Z,61.69
2022-08-31T15:30:18.207Z,61.76
2022-08-31T15:32:47.154Z,61.60
2022-08-31T15:35:20.839Z,61.65
2022-08-31T15:38:01.808Z,62.08
2022-08-31T15:40:40.361Z,61.95
2022-08-31T15:43:10.221Z,62.14
2022-08-31T15:45:37.407Z,61.95
2022-08-31T15:48:23.389Z,62.00
2022-08-31T15:50:53.982Z,62.23
2022-08-31T15:53:29.766Z,61.44
2022-08-31T15:56:06.861Z,58.63
2022-08-31T15:58:34.667Z,58.50
2022-08-31T16:01:05.297Z,57.48
2022-08-31T16:03:35.554Z,56.93
2022-08-31T16:06:04.473Z,56.49
2022-08-31T16:08:32.191Z,56.70
2022-08-31T16:10:59.450Z,56.64
2022-08-31T16:13:26.657Z,57.07
2022-08-31T16:15:53.790Z,56.66
2022-08-31T16:18:22.732Z,56.23
2022-08-31T16:20:52.245Z,56.23
2022-08-31T16:23:19.755Z,56.12
2022-08-31T16:25:49.357Z,55.53
2022-08-31T16:28:19.709Z,55.63
2022-08-31T16:30:47.315Z,54.95
2022-08-31T16:33:14.596Z,56.44
2022-08-31T16:35:45.468Z,57.17
2022-08-31T16:38:13.951Z,57.78
2022-08-31T16:40:42.570Z,58.68
2022-08-31T16:43:10.558Z,59.25
2022-08-31T16:45:41.719Z,59.69
2022-08-31T16:48:29.876Z,59.76
2022-08-31T16:50:58.486Z,60.37
2022-08-31T16:53:26.193Z,60.49
2022-08-31T16:55:54.014Z,60.71
2022-08-31T16:58:48.081Z,60.50
2022-08-31T17:01:15.219Z,59.48
2022-08-31T17:03:48.362Z,57.40
2022-08-31T17:06:16.233Z,57.72
2022-08-31T17:08:45.811Z,58.17
2022-08-31T17:11:44.125Z,59.12
2022-08-31T17:14:13.852Z,59.72
2022-08-31T17:16:41.712Z,59.78
2022-08-31T17:19:13.174Z,59.94
2022-08-31T17:21:49.773Z,59.94
2022-08-31T17:24:23.808Z,60.23
2022-08-31T17:26:57.678Z,60.38
2022-08-31T17:29:24.659Z,60.58
2022-08-31T17:31:55.707Z,60.43
2022-08-31T17:34:30.656Z,60.61
2022-08-31T17:37:01.839Z,60.68
2022-08-31T17:39:29.450Z,60.95
2022-08-31T17:41:58.811Z,61.36
2022-08-31T17:44:29.289Z,61.35
2022-08-31T17:46:56.349Z,61.37
2022-08-31T17:49:25.342Z,61.54
2022-08-31T17:51:54.937Z,61.47
2022-08-31T17:54:29.994Z,61.44
2022-08-31T17:57:00.876Z,63.26
2022-08-31T17:59:31.849Z,63.18
2022-08-31T18:02:10.643Z,63.30
2022-08-31T18:04:40.902Z,63.29
2022-08-31T18:07:13.328Z,63.08
2022-08-31T18:09:44.553Z,63.03
2022-08-31T18:12:12.200Z,63.06
2022-08-31T18:14:40.379Z,60.08
2022-08-31T18:17:12.920Z,59.99
2022-08-31T18:19:42.309Z,61.08
2022-08-31T18:22:10.741Z,61.13
2022-08-31T18:24:39.012Z,61.54
2022-08-31T18:27:10.172Z,61.68
2022-08-31T18:29:39.642Z,61.31
2022-08-31T18:32:11.314Z,59.44
2022-08-31T18:34:40.561Z,59.67
2022-08-31T18:37:08.991Z,59.56
2022-08-31T18:40:00.530Z,58.85
2022-08-31T18:42:47.813Z,58.44
2022-08-31T18:45:20.584Z,58.05
2022-08-31T18:48:23.180Z,57.66
2022-08-31T18:50:50.217Z,56.26
2022-08-31T18:53:27.668Z,57.00
2022-08-31T18:56:12.951Z,56.78
2022-08-31T18:58:45.513Z,57.07
2022-08-31T19:01:16.588Z,57.53
2022-08-31T19:03:46.073Z,58.10
2022-08-31T19:06:18.739Z,58.58
2022-08-31T19:08:47.866Z,58.87
2022-08-31T19:11:15.651Z,58.72
2022-08-31T19:13:43.479Z,59.10
2022-08-31T19:16:22.136Z,59.30
2022-08-31T19:18:51.570Z,60.33
2022-08-31T19:21:28.485Z,60.85
2022-08-31T19:24:00.550Z,61.56
2022-08-31T19:26:36.042Z,62.04
2022-08-31T19:29:09.503Z,62.34
2022-08-31T19:31:39.778Z,62.65
2022-08-31T19:34:09.931Z,62.41
2022-08-31T19:36:41.733Z,62.40
2022-08-31T19:39:12.725Z,62.56
2022-08-31T19:41:49.265Z,62.76
2022-08-31T19:44:18.767Z,62.80
2022-08-31T19:46:54.372Z,62.51
2022-08-31T19:49:23.253Z,62.73
2022-08-31T19:51:58.606Z,62.65
2022-08-31T19:54:37.101Z,62.73
2022-08-31T19:57:04.415Z,62.86
2022-08-31T19:59:31.976Z,62.83
2022-08-31T20:02:06.672Z,62.78
2022-08-31T20:04:36.754Z,62.65
2022-08-31T20:07:06.925Z,61.94
2022-08-31T20:09:36.114Z,61.63
2022-08-31T20:12:03.984Z,61.44
2022-08-31T20:14:32.283Z,62.07
2022-08-31T20:16:59.994Z,61.83
2022-08-31T20:19:29.392Z,61.95
2022-08-31T20:22:06.136Z,62.15
2022-08-31T20:24:33.221Z,62.10
2022-08-31T20:27:09.474Z,62.15
2022-08-31T20:29:39.064Z,62.19
2022-08-31T20:32:08.405Z,62.22
2022-08-31T20:34:35.825Z,61.86
2022-08-31T20:37:04.738Z,61.78
2022-08-31T20:39:36.636Z,62.55
2022-08-31T20:42:04.707Z,62.43
2022-08-31T20:44:35.385Z,62.55
2022-08-31T20:47:24.902Z,62.74
2022-08-31T20:49:56.013Z,62.78
2022-08-31T20:52:24.522Z,62.46
2022-08-31T20:54:59.071Z,62.66
2022-08-31T20:57:34.452Z,62.21
2022-08-31T21:00:06.002Z,62.04
2022-08-31T21:02:34.877Z,62.33
2022-08-31T21:05:27.229Z,62.67
2022-08-31T21:07:49.924Z,62.49
2022-08-31T21:10:19.071Z,62.51
2022-08-31T21:12:55.064Z,62.68
2022-08-31T21:15:29.398Z,62.81
2022-08-31T21:17:57.686Z,62.65
2022-08-31T21:20:25.850Z,62.83
2022-08-31T21:22:54.138Z,62.74
2022-08-31T21:25:21.353Z,63.02
2022-08-31T21:27:48.436Z,62.91
2022-08-31T21:30:15.917Z,62.99
2022-08-31T21:32:43.039Z,62.99
2022-08-31T21:35:11.771Z,63.01
2022-08-31T21:37:38.828Z,63.24
2022-08-31T21:40:06.646Z,63.39
2022-08-31T21:42:33.891Z,62.86
2022-08-31T21:45:01.001Z,63.21
2022-08-31T21:47:28.890Z,63.32
2022-08-31T21:49:55.876Z,63.41
2022-08-31T21:52:22.843Z,63.48
2022-08-31T21:54:49.870Z,63.37
2022-08-31T21:57:18.173Z,63.21
2022-08-31T21:59:45.223Z,63.36
2022-08-31T22:02:12.630Z,63.28
2022-08-31T22:04:42.238Z,63.41
2022-08-31T22:07:09.857Z,63.55
2022-08-31T22:09:37.807Z,63.63
2022-08-31T22:12:07.606Z,63.54
2022-08-31T22:14:38.171Z,63.46
2022-08-31T22:17:07.196Z,63.38
2022-08-31T22:19:39.003Z,63.48
2022-08-31T22:22:11.620Z,63.53
2022-08-31T22:24:39.799Z,63.61
2022-08-31T22:27:09.484Z,63.51
2022-08-31T22:29:38.926Z,63.51
2022-08-31T22:32:12.562Z,63.89
2022-08-31T22:34:41.080Z,63.67
2022-08-31T22:37:09.328Z,63.73
2022-08-31T22:39:36.910Z,63.84
2022-08-31T22:42:04.933Z,63.80
2022-08-31T22:44:35.497Z,63.72
2022-08-31T22:47:03.473Z,63.93
2022-08-31T22:49:31.252Z,63.77
2022-08-31T22:51:58.278Z,63.80
2022-08-31T22:54:26.249Z,63.76
2022-08-31T22:56:53.994Z,63.88
2022-08-31T22:59:27.604Z,63.90
2022-08-31T23:02:03.658Z,63.88
2022-08-31T23:04:33.633Z,63.79
2022-08-31T23:07:02.092Z,63.82
2022-08-31T23:09:31.195Z,64.08
2022-08-31T23:12:01.133Z,63.89
2022-08-31T23:14:29.609Z,63.97
2022-08-31T23:16:59.317Z,64.03
2022-08-31T23:19:37.307Z,64.03
2022-08-31T23:22:09.560Z,64.01
2022-08-31T23:24:44.987Z,64.01
2022-08-31T23:27:14.156Z,63.99
2022-08-31T23:29:47.363Z,63.86
2022-08-31T23:32:20.186Z,64.09
2022-08-31T23:34:50.895Z,63.91
2022-08-31T23:37:18.679Z,64.04
2022-08-31T23:39:46.573Z,63.93
2022-08-31T23:42:16.452Z,64.03
2022-08-31T23:44:45.138Z,63.94
2022-08-31T23:47:16.711Z,63.94
2022-08-31T23:49:45.909Z,64.03
2022-08-31T23:52:18.852Z,64.10
2022-08-31T23:54:49.787Z,63.82
2022-08-31T23:57:32.690Z,63.94
